Terminal Aerodrome Forecast
Issued by NWS

Home | Current Version | Previous Version | Text Only | Print | Product List | Glossary On
Versions: 1 2 3 4 5 6 7 8 9 10 11 12 13 14 15 16
814
FTUS44 KTSA 092320
TAFMLC
TAF
KMLC 092320Z 1000/1024 34014G23KT P6SM SCT250
     FM100200 35004KT P6SM SCT250
     FM100600 VRB03KT P6SM SCT250
     FM101500 18010KT P6SM SCT250=

USA.gov is the U.S. government's official web portal to all federal, state and local government web resources and services.